Time;durP1;ratioP1;P1;durP2;ratioP2;P2;SDS_P1;SDS_P2;PMS_P1;PMS_P2;Temp;Humidity;BMP_temperature;BMP_pressure;BME280_temperature;BME280_humidity;BME280_pressure;Samples;Min_cycle;Max_cycle;Signal;HPM_P1;HPM_P2
2021/12/23 00:00:36;;;;;;;35.58;21.27;;;-1.00;99.90;;;;;;5017956;28;20456;-90
2021/12/23 00:03:03;;;;;;;36.03;20.77;;;-1.00;99.90;;;;;;5018214;28;20190;-87
2021/12/23 00:05:28;;;;;;;32.60;20.00;;;-1.00;99.90;;;;;;5017913;28;20199;-90
2021/12/23 00:07:55;;;;;;;33.30;17.93;;;-1.00;99.90;;;;;;5018210;28;20178;-90
2021/12/23 00:10:20;;;;;;;38.10;21.23;;;-1.00;99.90;;;;;;5017701;28;20202;-90
2021/12/23 00:12:47;;;;;;;37.33;21.40;;;-1.10;99.90;;;;;;5017834;28;20225;-87
2021/12/23 00:15:29;;;;;;;32.92;20.92;;;-1.10;99.90;;;;;;5035689;28;20198;-90
2021/12/23 00:18:04;;;;;;;32.63;20.42;;;-1.10;99.90;;;;;;5017585;28;20181;-90
2021/12/23 00:25:44;;;;;;;32.17;19.85;;;-1.00;99.90;;;;;;5035338;28;20208;-91
2021/12/23 00:28:10;;;;;;;32.43;20.57;;;-1.00;99.90;;;;;;5035091;28;20183;-90
2021/12/23 00:30:35;;;;;;;35.37;20.60;;;-1.00;99.90;;;;;;5017265;28;20441;-89
2021/12/23 00:33:01;;;;;;;35.90;20.07;;;-1.00;99.90;;;;;;5017279;28;20321;-90
2021/12/23 00:35:27;;;;;;;38.97;24.17;;;-1.00;99.90;;;;;;5028306;28;20667;-90
2021/12/23 00:38:00;;;;;;;36.67;20.40;;;-1.10;99.90;;;;;;5033838;28;20406;-90
2021/12/23 00:40:26;;;;;;;40.30;21.05;;;-1.10;99.90;;;;;;5036949;28;20186;-90
2021/12/23 00:42:51;;;;;;;31.13;18.80;;;-1.10;99.90;;;;;;5019219;28;20274;-87
2021/12/23 00:45:17;;;;;;;32.70;18.87;;;-1.10;99.90;;;;;;5035178;28;20745;-87
2021/12/23 00:47:43;;;;;;;36.17;21.10;;;-1.10;99.90;;;;;;5017514;28;20663;-91
2021/12/23 00:50:09;;;;;;;35.42;21.80;;;-1.20;99.90;;;;;;5044378;28;20261;-88
2021/12/23 00:52:37;;;;;;;42.13;22.13;;;-1.20;99.90;;;;;;5022632;28;20214;-89
2021/12/23 00:55:09;;;;;;;34.22;19.73;;;-1.20;99.90;;;;;;5017039;28;20794;-90
2021/12/23 00:57:38;;;;;;;36.28;20.95;;;-1.20;99.90;;;;;;5016985;28;20183;-88
2021/12/23 01:00:10;;;;;;;38.90;21.13;;;-1.20;99.90;;;;;;5017271;28;20202;-89
2021/12/23 01:02:37;;;;;;;29.60;18.63;;;-1.20;99.90;;;;;;5016959;28;20183;-88
2021/12/23 01:05:03;;;;;;;38.28;19.88;;;-1.20;99.90;;;;;;5016962;28;20206;-88
2021/12/23 01:07:29;;;;;;;36.90;21.58;;;-1.20;99.90;;;;;;5016747;28;20175;-88
2021/12/23 01:09:55;;;;;;;29.97;20.40;;;-1.20;99.90;;;;;;5017239;28;20293;-89
2021/12/23 01:12:26;;;;;;;30.53;20.40;;;-1.10;99.90;;;;;;5034552;28;20214;-88
2021/12/23 01:14:59;;;;;;;36.72;22.38;;;-1.10;99.90;;;;;;5017146;28;20257;-91
2021/12/23 01:19:53;;;;;;;39.95;22.73;;;-1.00;99.90;;;;;;5034760;28;20206;-90
2021/12/23 01:22:20;;;;;;;37.70;23.92;;;-1.10;99.90;;;;;;5035996;28;20681;-88
2021/12/23 01:24:46;;;;;;;44.17;26.58;;;-1.00;99.90;;;;;;5019225;28;20251;-89
2021/12/23 01:27:13;;;;;;;42.42;23.23;;;-1.00;99.90;;;;;;5034654;28;20578;-88
2021/12/23 01:29:38;;;;;;;47.00;24.00;;;-1.00;99.90;;;;;;5017196;28;20579;-87
2021/12/23 01:32:06;;;;;;;38.10;21.73;;;-1.00;99.90;;;;;;5034759;28;20213;-89
2021/12/23 01:34:36;;;;;;;33.88;21.40;;;-1.00;99.90;;;;;;5034471;28;20187;-88
2021/12/23 01:37:05;;;;;;;42.10;22.65;;;-1.00;99.90;;;;;;5038347;28;20222;-88
2021/12/23 01:39:32;;;;;;;35.58;21.55;;;-1.00;99.90;;;;;;5054870;28;20179;-88
2021/12/23 01:41:57;;;;;;;35.28;21.60;;;-1.10;99.90;;;;;;5025437;28;20214;-88
2021/12/23 01:44:23;;;;;;;37.10;21.97;;;-1.10;99.90;;;;;;5034519;28;20221;-90
2021/12/23 01:46:49;;;;;;;35.47;21.37;;;-1.20;99.90;;;;;;5016568;28;20198;-87
2021/12/23 01:49:15;;;;;;;42.73;26.80;;;-1.20;99.90;;;;;;5016695;28;20517;-88
2021/12/23 01:51:41;;;;;;;49.47;26.53;;;-1.20;99.90;;;;;;5016069;28;20264;-90
2021/12/23 01:54:07;;;;;;;34.83;21.92;;;-1.30;99.90;;;;;;5016601;28;20491;-90
2021/12/23 01:56:33;;;;;;;40.25;20.95;;;-1.30;99.90;;;;;;5033160;28;20202;-90
2021/12/23 01:58:59;;;;;;;35.63;22.40;;;-1.30;99.90;;;;;;5016844;28;20178;-88
2021/12/23 02:01:25;;;;;;;36.20;20.23;;;-1.40;99.90;;;;;;5020307;28;20202;-86
2021/12/23 02:03:51;;;;;;;41.57;23.00;;;-1.50;99.90;;;;;;5017567;28;20298;-87
2021/12/23 02:06:16;;;;;;;40.53;22.87;;;-1.50;99.90;;;;;;5037813;28;20682;-87
2021/12/23 02:08:43;;;;;;;44.13;25.00;;;-1.60;99.90;;;;;;5037922;28;20230;-87
2021/12/23 02:11:11;;;;;;;40.55;22.27;;;-1.70;99.90;;;;;;5020813;28;20198;-90
2021/12/23 02:13:38;;;;;;;37.33;23.10;;;-1.70;99.90;;;;;;5020350;28;20222;-87
2021/12/23 02:16:06;;;;;;;37.47;22.05;;;-1.80;99.90;;;;;;5041538;28;20202;-87
2021/12/23 02:18:32;;;;;;;40.33;21.67;;;-1.80;99.90;;;;;;5047934;28;20174;-90
2021/12/23 02:20:58;;;;;;;34.10;22.15;;;-1.90;99.90;;;;;;5024969;28;20205;-87
2021/12/23 02:23:25;;;;;;;34.92;21.65;;;-1.90;99.90;;;;;;5037567;28;20183;-90
2021/12/23 02:25:51;;;;;;;35.72;20.15;;;-1.90;99.90;;;;;;5037120;28;20194;-87
2021/12/23 02:28:19;;;;;;;36.20;21.67;;;-1.90;99.90;;;;;;5036214;28;20269;-91
2021/12/23 02:30:46;;;;;;;34.40;20.58;;;-1.90;99.90;;;;;;5036907;28;20451;-87
2021/12/23 02:33:12;;;;;;;35.92;21.48;;;-1.90;99.90;;;;;;5022414;28;20218;-88
2021/12/23 02:35:38;;;;;;;32.87;20.53;;;-1.90;99.90;;;;;;5021550;28;20205;-91
2021/12/23 02:38:05;;;;;;;38.28;22.17;;;-1.90;99.90;;;;;;5019651;28;20402;-90
2021/12/23 02:40:34;;;;;;;36.63;21.45;;;-1.90;99.90;;;;;;5036056;28;20391;-90
2021/12/23 02:43:22;;;;;;;42.78;22.05;;;-2.00;99.90;;;;;;5037641;28;20199;-90
2021/12/23 02:45:50;;;;;;;41.92;23.42;;;-1.90;99.90;;;;;;5019236;28;20202;-90
2021/12/23 02:48:32;;;;;;;41.05;23.38;;;-2.00;99.90;;;;;;5019433;28;20186;-90
2021/12/23 02:50:59;;;;;;;47.53;23.60;;;-2.00;99.90;;;;;;5019468;28;20234;-91
2021/12/23 02:53:25;;;;;;;41.70;24.08;;;-2.10;99.90;;;;;;5019427;28;20222;-88
2021/12/23 02:55:54;;;;;;;46.55;24.45;;;-2.10;99.90;;;;;;5037130;28;20186;-88
2021/12/23 02:58:20;;;;;;;40.90;22.23;;;-2.20;99.90;;;;;;5046603;28;20202;-87
2021/12/23 03:00:48;;;;;;;35.53;23.70;;;-2.20;99.90;;;;;;5018807;28;20202;-87
2021/12/23 03:03:14;;;;;;;44.58;24.60;;;-2.20;99.90;;;;;;5036846;28;20206;-90
2021/12/23 03:05:49;;;;;;;35.50;22.20;;;-2.30;99.90;;;;;;5018807;28;20694;-89
2021/12/23 03:08:14;;;;;;;44.22;22.48;;;-2.30;99.90;;;;;;5036986;28;20203;-87
2021/12/23 03:10:40;;;;;;;39.83;23.83;;;-2.30;99.90;;;;;;5019471;28;20293;-90
2021/12/23 03:13:06;;;;;;;46.80;23.07;;;-2.30;99.90;;;;;;5024400;28;20472;-90
2021/12/23 03:15:31;;;;;;;42.53;23.07;;;-2.30;99.90;;;;;;5018246;28;20675;-90
2021/12/23 03:17:57;;;;;;;40.60;24.10;;;-2.30;99.90;;;;;;5018878;28;20233;-90
2021/12/23 03:20:23;;;;;;;37.07;22.97;;;-2.20;99.90;;;;;;5018684;28;20257;-90
2021/12/23 03:22:48;;;;;;;42.50;22.90;;;-2.20;99.90;;;;;;5036632;28;20690;-88
2021/12/23 03:25:14;;;;;;;42.07;24.07;;;-2.20;99.90;;;;;;5018713;28;20198;-87
2021/12/23 03:27:40;;;;;;;47.13;25.23;;;-2.30;99.90;;;;;;5036190;28;20173;-87
2021/12/23 03:30:06;;;;;;;42.27;25.23;;;-2.30;99.90;;;;;;5018781;28;20675;-87
2021/12/23 03:32:32;;;;;;;35.47;22.70;;;-2.30;99.90;;;;;;5018299;28;20252;-87
2021/12/23 03:34:58;;;;;;;38.92;22.77;;;-2.30;99.90;;;;;;5036567;28;20241;-87
2021/12/23 03:37:23;;;;;;;44.90;24.03;;;-2.40;99.90;;;;;;5018590;28;20179;-87
2021/12/23 03:39:51;;;;;;;44.30;25.07;;;-2.40;99.90;;;;;;5024287;28;20206;-90
2021/12/23 03:42:17;;;;;;;44.42;23.77;;;-2.40;99.90;;;;;;5042850;28;20175;-90
2021/12/23 03:44:43;;;;;;;43.25;23.88;;;-2.30;99.90;;;;;;5054264;28;20163;-90
2021/12/23 03:47:09;;;;;;;38.87;23.23;;;-2.40;99.90;;;;;;5044568;28;20181;-90
2021/12/23 03:49:34;;;;;;;34.17;21.40;;;-2.40;99.90;;;;;;5029922;28;20186;-89
2021/12/23 03:52:00;;;;;;;44.03;24.03;;;-2.40;99.90;;;;;;5038031;28;20234;-87
2021/12/23 03:54:25;;;;;;;40.10;22.77;;;-2.50;99.90;;;;;;5021322;28;20182;-90
2021/12/23 03:56:51;;;;;;;38.60;22.83;;;-2.50;99.90;;;;;;5039703;28;20667;-90
2021/12/23 03:59:17;;;;;;;39.27;23.30;;;-2.50;99.90;;;;;;5036045;28;20412;-90
2021/12/23 04:01:42;;;;;;;40.30;23.33;;;-2.50;99.90;;;;;;5018304;28;20544;-87
2021/12/23 04:04:08;;;;;;;42.47;22.33;;;-2.50;99.90;;;;;;5018071;28;20244;-88
2021/12/23 04:06:34;;;;;;;40.33;23.20;;;-2.50;99.90;;;;;;5035801;28;20186;-87
2021/12/23 04:08:59;;;;;;;41.20;23.20;;;-2.50;99.90;;;;;;5018052;28;20240;-90
2021/12/23 04:11:25;;;;;;;43.97;24.60;;;-2.50;99.90;;;;;;5035328;28;20201;-90
2021/12/23 04:13:53;;;;;;;35.70;22.63;;;-2.60;99.90;;;;;;5017906;28;20198;-90
2021/12/23 04:16:21;;;;;;;36.60;23.15;;;-2.60;99.90;;;;;;5017660;28;20481;-87
2021/12/23 04:18:49;;;;;;;42.60;24.88;;;-2.60;99.90;;;;;;5035175;28;20193;-91
2021/12/23 04:21:15;;;;;;;35.75;22.63;;;-2.60;99.90;;;;;;5017507;28;20199;-87
2021/12/23 04:23:41;;;;;;;43.43;24.13;;;-2.70;99.90;;;;;;5035939;28;20185;-90
2021/12/23 04:26:09;;;;;;;40.37;24.07;;;-2.70;99.90;;;;;;5017519;28;20961;-87
2021/12/23 04:28:44;;;;;;;39.42;23.33;;;-2.70;99.90;;;;;;5017780;28;20640;-87
2021/12/23 04:31:10;;;;;;;42.80;24.67;;;-2.70;99.90;;;;;;5017705;28;20679;-90
2021/12/23 04:33:36;;;;;;;39.97;23.70;;;-2.70;99.90;;;;;;5032116;28;20222;-90
2021/12/23 04:36:02;;;;;;;38.60;24.37;;;-2.70;99.90;;;;;;5054729;28;20197;-90
2021/12/23 04:38:28;;;;;;;41.97;23.40;;;-2.80;99.90;;;;;;5034369;28;20420;-87
2021/12/23 04:40:53;;;;;;;49.33;24.90;;;-2.80;99.90;;;;;;5018300;28;20792;-90
2021/12/23 04:43:19;;;;;;;41.93;24.60;;;-2.80;99.90;;;;;;5035936;28;20194;-88
2021/12/23 04:45:45;;;;;;;41.60;25.70;;;-2.90;99.90;;;;;;5021671;28;20758;-87
2021/12/23 04:48:10;;;;;;;38.10;23.00;;;-2.90;99.90;;;;;;5013758;28;20194;-90
2021/12/23 04:50:36;;;;;;;43.47;24.83;;;-2.90;99.90;;;;;;5029929;28;20924;-89
2021/12/23 04:53:02;;;;;;;40.63;22.93;;;-3.00;99.90;;;;;;5016883;28;20226;-91
2021/12/23 04:55:28;;;;;;;37.50;24.07;;;-3.00;99.90;;;;;;5017070;28;20543;-90
2021/12/23 04:57:54;;;;;;;41.83;24.20;;;-3.00;99.90;;;;;;5017524;28;20391;-90
2021/12/23 05:00:21;;;;;;;41.87;24.67;;;-3.00;99.90;;;;;;5021199;28;20244;-88
2021/12/23 05:02:48;;;;;;;39.17;24.02;;;-3.10;99.90;;;;;;5033200;28;20647;-87
2021/12/23 05:05:15;;;;;;;39.97;24.15;;;-3.10;99.90;;;;;;5017111;28;20218;-87
2021/12/23 05:07:41;;;;;;;43.35;23.23;;;-3.20;99.90;;;;;;5020036;28;20278;-91
2021/12/23 05:10:08;;;;;;;43.10;24.73;;;-3.20;99.90;;;;;;5022524;28;20214;-86
2021/12/23 05:12:43;;;;;;;42.80;26.58;;;-3.20;99.90;;;;;;5036563;28;20452;-86
2021/12/23 05:15:19;;;;;;;55.50;25.30;;;-3.20;99.90;;;;;;5015971;28;20212;-87
2021/12/23 05:17:46;;;;;;;41.67;25.88;;;-3.20;99.90;;;;;;5016901;28;20182;-90
2021/12/23 05:20:15;;;;;;;50.17;27.73;;;-3.20;99.90;;;;;;5034533;28;20717;-87
2021/12/23 05:22:41;;;;;;;52.20;28.40;;;-3.20;99.90;;;;;;5016655;28;20553;-90
2021/12/23 05:25:08;;;;;;;44.70;26.53;;;-3.30;99.90;;;;;;5016552;28;20202;-86
2021/12/23 05:27:34;;;;;;;55.42;29.02;;;-3.30;99.90;;;;;;5032405;28;20470;-89
2021/12/23 05:30:01;;;;;;;44.33;25.70;;;-3.40;99.90;;;;;;5015873;28;20247;-91
2021/12/23 05:32:27;;;;;;;51.90;27.92;;;-3.40;99.90;;;;;;5016387;28;20517;-87
2021/12/23 05:34:53;;;;;;;49.00;26.33;;;-3.40;99.90;;;;;;5016743;28;20198;-89
2021/12/23 05:37:19;;;;;;;51.20;28.43;;;-3.50;99.90;;;;;;5034654;28;20536;-87
2021/12/23 05:39:45;;;;;;;56.30;27.70;;;-3.50;99.90;;;;;;5018679;28;20217;-87
2021/12/23 05:42:11;;;;;;;51.90;26.77;;;-3.40;99.90;;;;;;5020810;28;20644;-88
2021/12/23 05:44:36;;;;;;;55.17;30.00;;;-3.50;99.90;;;;;;5020497;28;20190;-90
2021/12/23 05:47:03;;;;;;;52.17;28.70;;;-3.50;99.90;;;;;;5038268;28;20398;-89
2021/12/23 05:49:29;;;;;;;54.50;29.67;;;-3.50;99.90;;;;;;5024507;28;20194;-90
2021/12/23 05:51:54;;;;;;;48.35;29.00;;;-3.50;99.90;;;;;;5049805;28;20234;-87
2021/12/23 05:54:20;;;;;;;48.57;29.30;;;-3.50;99.90;;;;;;5022563;28;20246;-90
2021/12/23 05:56:46;;;;;;;48.60;28.47;;;-3.60;99.90;;;;;;5043012;28;20262;-90
2021/12/23 05:59:12;;;;;;;48.87;27.17;;;-3.60;99.90;;;;;;5032167;28;20506;-90
2021/12/23 06:01:37;;;;;;;47.50;27.37;;;-3.70;99.90;;;;;;5016691;28;20201;-87
2021/12/23 06:04:03;;;;;;;46.30;27.63;;;-3.70;99.90;;;;;;5012221;28;20428;-91
2021/12/23 06:06:29;;;;;;;57.17;28.95;;;-3.70;99.90;;;;;;5038083;28;20202;-87
2021/12/23 06:08:55;;;;;;;52.77;28.37;;;-3.70;99.90;;;;;;5019794;28;20189;-88
2021/12/23 06:11:21;;;;;;;56.00;29.47;;;-3.80;99.90;;;;;;5037746;28;20195;-90
2021/12/23 06:13:46;;;;;;;46.63;27.57;;;-3.80;99.90;;;;;;5038005;28;20234;-90
2021/12/23 06:16:12;;;;;;;56.00;29.23;;;-3.90;99.90;;;;;;5020139;28;20927;-88
2021/12/23 06:18:38;;;;;;;55.70;31.30;;;-3.90;99.90;;;;;;5020153;28;20183;-90
2021/12/23 06:21:04;;;;;;;51.37;30.20;;;-3.90;99.90;;;;;;5019916;28;20205;-87
2021/12/23 06:23:31;;;;;;;57.35;33.25;;;-3.90;99.90;;;;;;5020095;28;20940;-90
2021/12/23 06:25:56;;;;;;;81.05;42.70;;;-3.90;99.90;;;;;;5037488;28;20192;-87
2021/12/23 06:28:22;;;;;;;67.00;33.80;;;-3.90;99.90;;;;;;5019762;28;20265;-91
2021/12/23 06:30:48;;;;;;;56.27;30.83;;;-3.90;99.90;;;;;;5019172;28;20301;-87
2021/12/23 06:33:14;;;;;;;48.27;28.50;;;-4.00;99.90;;;;;;5019766;28;20639;-87
2021/12/23 06:35:39;;;;;;;52.87;30.30;;;-3.90;99.90;;;;;;5019357;28;20467;-87
2021/12/23 06:38:08;;;;;;;57.37;32.23;;;-3.90;99.90;;;;;;5039735;28;20178;-88
2021/12/23 06:40:34;;;;;;;56.40;30.77;;;-3.90;99.90;;;;;;5033785;28;20198;-90
2021/12/23 06:43:00;;;;;;;53.28;28.83;;;-3.90;99.90;;;;;;5043901;28;20186;-87
2021/12/23 06:45:25;;;;;;;52.50;29.37;;;-3.90;99.90;;;;;;5023216;28;20213;-90
2021/12/23 06:47:51;;;;;;;54.70;30.47;;;-3.90;99.90;;;;;;5019529;28;20636;-90
2021/12/23 06:50:18;;;;;;;52.27;29.60;;;-3.90;99.90;;;;;;5036184;28;20317;-90
2021/12/23 06:52:45;;;;;;;48.05;27.35;;;-3.90;99.90;;;;;;5016721;28;20220;-88
2021/12/23 06:55:12;;;;;;;49.30;28.60;;;-3.90;99.90;;;;;;5019239;28;20199;-87
2021/12/23 06:57:39;;;;;;;48.88;26.35;;;-3.90;99.90;;;;;;5037103;28;20178;-90
2021/12/23 07:00:08;;;;;;;43.53;26.75;;;-3.90;99.90;;;;;;5020608;28;20203;-88
2021/12/23 07:02:37;;;;;;;50.53;28.98;;;-3.90;99.90;;;;;;5037091;28;20560;-90
2021/12/23 07:05:03;;;;;;;49.05;29.52;;;-3.90;99.90;;;;;;5019595;28;20211;-90
2021/12/23 07:07:39;;;;;;;46.42;26.35;;;-3.80;99.90;;;;;;5037444;28;20253;-91
2021/12/23 07:10:06;;;;;;;46.83;27.80;;;-3.80;99.90;;;;;;5022043;28;20250;-86
2021/12/23 07:12:31;;;;;;;39.78;26.15;;;-3.80;99.90;;;;;;5018826;28;20206;-90
2021/12/23 07:14:57;;;;;;;43.13;25.43;;;-3.80;99.90;;;;;;5018395;28;20301;-87
2021/12/23 07:17:23;;;;;;;40.83;24.37;;;-3.80;99.90;;;;;;5034348;28;20185;-90
2021/12/23 07:19:49;;;;;;;38.87;23.70;;;-3.70;99.90;;;;;;5037051;28;20455;-87
2021/12/23 07:22:14;;;;;;;40.50;24.17;;;-3.70;99.90;;;;;;5019068;28;20418;-87
2021/12/23 07:24:41;;;;;;;37.97;22.93;;;-3.70;99.90;;;;;;5019018;28;20182;-90
2021/12/23 07:27:07;;;;;;;47.20;26.25;;;-3.60;99.90;;;;;;5018913;28;20639;-88
2021/12/23 07:29:33;;;;;;;43.20;27.33;;;-3.50;99.90;;;;;;5036283;28;20205;-87
2021/12/23 07:31:59;;;;;;;43.70;25.00;;;-3.40;99.90;;;;;;5018428;28;20234;-89
2021/12/23 07:34:25;;;;;;;42.05;25.17;;;-3.20;99.90;;;;;;5017688;28;20966;-86
2021/12/23 07:36:51;;;;;;;37.38;24.52;;;-2.90;99.90;;;;;;5014820;28;20273;-87
2021/12/23 07:39:17;;;;;;;44.87;24.70;;;-2.60;99.90;;;;;;5050301;28;20217;-88
2021/12/23 07:41:42;;;;;;;37.00;22.13;;;-2.30;99.90;;;;;;5017119;28;20238;-88
2021/12/23 07:44:19;;;;;;;39.83;24.00;;;-1.80;99.90;;;;;;5015500;28;20198;-91
2021/12/23 07:46:45;;;;;;;33.15;20.70;;;-1.40;99.90;;;;;;5049023;28;20248;-87
2021/12/23 07:49:11;;;;;;;33.67;21.17;;;-1.00;99.90;;;;;;5017151;28;20640;-88
2021/12/23 07:51:36;;;;;;;39.57;22.07;;;-0.50;99.90;;;;;;5016632;28;20211;-89
2021/12/23 07:54:02;;;;;;;32.70;22.07;;;0.00;99.90;;;;;;5015320;28;20195;-87
2021/12/23 07:56:28;;;;;;;38.37;22.63;;;0.50;99.90;;;;;;5012433;28;20206;-89
2021/12/23 07:58:53;;;;;;;37.77;21.13;;;1.00;99.90;;;;;;4997285;28;20184;-90
2021/12/23 08:01:19;;;;;;;59.90;35.83;;;1.70;99.90;;;;;;4989299;28;20675;-90
2021/12/23 08:03:46;;;;;;;43.87;28.77;;;2.40;99.90;;;;;;4994656;28;20218;-88
2021/12/23 08:06:12;;;;;;;112.53;58.20;;;3.10;99.90;;;;;;4995073;28;20432;-88
2021/12/23 08:08:38;;;;;;;38.30;27.55;;;3.70;99.90;;;;;;5012880;28;20187;-90
2021/12/23 08:11:03;;;;;;;65.23;38.70;;;4.10;99.90;;;;;;4995561;28;20195;-90
2021/12/23 08:13:29;;;;;;;33.60;23.10;;;4.30;99.90;;;;;;4997017;28;20515;-91
2021/12/23 08:15:57;;;;;;;48.47;33.63;;;4.40;99.90;;;;;;4996921;28;20839;-88
2021/12/23 08:18:23;;;;;;;38.80;26.30;;;4.50;99.90;;;;;;4994265;28;20191;-88
2021/12/23 08:20:49;;;;;;;37.93;24.67;;;4.40;99.90;;;;;;4995121;28;20257;-87
2021/12/23 08:23:15;;;;;;;33.03;20.60;;;4.40;99.90;;;;;;4994819;28;20407;-90
2021/12/23 08:25:40;;;;;;;65.17;38.87;;;4.30;99.90;;;;;;5012286;28;20187;-91
2021/12/23 08:28:06;;;;;;;32.08;21.15;;;4.30;99.60;;;;;;4995176;28;20253;-90
2021/12/23 08:30:33;;;;;;;32.90;24.73;;;4.10;99.50;;;;;;4997573;28;20217;-90
2021/12/23 08:32:59;;;;;;;26.88;18.58;;;3.90;99.90;;;;;;5013898;28;20215;-90
2021/12/23 08:35:25;;;;;;;37.50;23.60;;;3.60;99.60;;;;;;5013328;28;20203;-87
2021/12/23 08:37:51;;;;;;;35.37;21.20;;;3.40;99.70;;;;;;4994833;28;20202;-87
2021/12/23 08:40:22;;;;;;;32.83;22.13;;;3.20;99.90;;;;;;5008113;28;20195;-90
2021/12/23 08:42:49;;;;;;;29.52;20.17;;;3.10;99.90;;;;;;5025540;28;20221;-88
2021/12/23 08:45:16;;;;;;;50.67;33.80;;;3.20;99.90;;;;;;5012493;28;20261;-88
2021/12/23 08:47:42;;;;;;;53.83;33.95;;;3.40;99.90;;;;;;5009060;28;20163;-90
2021/12/23 08:50:10;;;;;;;98.07;56.08;;;3.60;99.90;;;;;;4992567;28;20646;-87
2021/12/23 08:52:36;;;;;;;47.03;32.00;;;3.90;99.90;;;;;;4993821;28;20627;-90
2021/12/23 08:55:05;;;;;;;40.30;25.35;;;4.10;99.90;;;;;;4995854;28;20210;-91
2021/12/23 08:57:31;;;;;;;33.60;21.02;;;3.80;99.60;;;;;;5003480;28;20179;-90
2021/12/23 08:59:57;;;;;;;30.67;21.73;;;3.40;99.90;;;;;;4995352;28;20211;-90
2021/12/23 09:02:23;;;;;;;32.38;22.42;;;2.80;99.90;;;;;;4996892;28;20413;-87
2021/12/23 09:04:49;;;;;;;36.37;25.23;;;2.40;99.90;;;;;;5000367;28;20211;-87
2021/12/23 09:07:14;;;;;;;38.40;22.93;;;2.10;99.90;;;;;;4997171;28;20282;-90
2021/12/23 09:09:45;;;;;;;36.00;22.93;;;1.80;99.90;;;;;;5011369;28;20473;-90
2021/12/23 09:12:11;;;;;;;32.53;25.08;;;1.60;99.90;;;;;;4991455;28;20955;-90
2021/12/23 09:14:37;;;;;;;32.03;21.33;;;1.40;99.90;;;;;;4991574;28;20191;-89
2021/12/23 09:17:03;;;;;;;44.40;35.43;;;1.20;99.90;;;;;;5008994;28;20172;-90
2021/12/23 09:19:29;;;;;;;39.15;29.52;;;0.90;99.90;;;;;;4992422;28;20419;-87
2021/12/23 09:21:54;;;;;;;44.22;32.80;;;0.70;99.90;;;;;;4992557;28;20179;-87
2021/12/23 09:24:20;;;;;;;40.77;25.17;;;0.60;99.90;;;;;;4993195;28;20218;-87
2021/12/23 09:26:54;;;;;;;35.60;26.87;;;0.50;99.90;;;;;;4994421;28;20199;-88
2021/12/23 09:34:50;;;;;;;38.28;23.15;;;0.40;99.90;;;;;;5015508;28;20213;-87
2021/12/23 09:37:15;;;;;;;34.85;20.92;;;0.40;99.90;;;;;;5016478;28;20167;-90
2021/12/23 09:39:41;;;;;;;32.83;21.27;;;0.30;99.90;;;;;;5013134;28;20175;-90
2021/12/23 09:42:07;;;;;;;33.73;22.83;;;0.30;99.90;;;;;;5012773;28;20413;-90
2021/12/23 09:44:33;;;;;;;37.88;22.88;;;0.30;99.90;;;;;;5012483;28;20471;-90
2021/12/23 09:47:02;;;;;;;29.07;16.30;;;0.30;99.90;;;;;;5012934;28;20170;-90
2021/12/23 09:49:29;;;;;;;37.55;20.50;;;0.30;99.90;;;;;;4994998;28;20186;-90
2021/12/23 09:51:57;;;;;;;31.45;18.98;;;0.30;99.90;;;;;;5013915;28;20230;-90
2021/12/23 09:54:25;;;;;;;32.35;21.98;;;0.30;99.90;;;;;;5015456;28;20208;-90
2021/12/23 09:56:52;;;;;;;27.88;19.58;;;0.20;99.90;;;;;;5031602;28;20189;-90
2021/12/23 09:59:20;;;;;;;31.63;20.80;;;0.20;99.90;;;;;;5032220;28;20584;-87
2021/12/23 10:01:45;;;;;;;31.52;20.75;;;0.20;99.90;;;;;;5032108;28;20194;-89
2021/12/23 10:04:11;;;;;;;34.20;20.97;;;0.20;99.90;;;;;;5016197;28;20195;-90
2021/12/23 10:06:37;;;;;;;30.80;19.27;;;0.30;99.90;;;;;;5016289;28;20436;-88
2021/12/23 10:09:03;;;;;;;31.40;19.37;;;0.20;99.90;;;;;;5008070;28;20183;-90
2021/12/23 10:33:27;;;;;;;39.03;23.67;;;0.50;99.90;;;;;;5036334;28;20249;-91
2021/12/23 10:38:43;;;;;;;39.63;22.85;;;0.60;99.90;;;;;;5035770;28;20210;-90
2021/12/23 10:41:14;;;;;;;39.97;24.77;;;0.60;99.90;;;;;;5023042;28;20198;-88
2021/12/23 10:44:04;;;;;;;41.63;29.83;;;0.60;99.90;;;;;;5036164;28;20182;-88
2021/12/23 10:46:37;;;;;;;47.35;33.05;;;0.70;99.90;;;;;;5019243;28;20198;-90
2021/12/23 10:52:36;;;;;;;32.95;21.75;;;0.70;99.90;;;;;;5036845;28;20273;-88
2021/12/23 11:00:23;;;;;;;32.05;21.83;;;0.80;99.90;;;;;;5053645;28;20333;-90
2021/12/23 11:03:16;;;;;;;36.00;20.58;;;0.90;99.90;;;;;;5018676;28;20270;-90
2021/12/23 11:05:52;;;;;;;40.97;26.73;;;0.90;99.90;;;;;;5018714;28;20201;-88
2021/12/23 11:38:23;;;;;;;50.00;33.83;;;1.00;99.90;;;;;;5031621;28;20186;-88
2021/12/23 11:40:53;;;;;;;52.13;36.75;;;1.10;99.90;;;;;;5016238;28;20207;-90
2021/12/23 11:43:30;;;;;;;34.70;23.90;;;1.10;99.90;;;;;;5015461;28;20191;-87
2021/12/23 11:45:56;;;;;;;39.25;30.80;;;1.10;99.90;;;;;;5015690;28;20740;-90
2021/12/23 11:48:22;;;;;;;35.47;27.85;;;1.10;99.90;;;;;;5033845;28;20175;-87
2021/12/23 11:51:09;;;;;;;32.38;20.48;;;1.10;99.90;;;;;;5016385;28;20293;-90
2021/12/23 11:53:36;;;;;;;41.90;30.08;;;1.10;99.90;;;;;;5018783;28;20301;-90
2021/12/23 11:56:06;;;;;;;33.90;22.05;;;1.10;99.90;;;;;;5016366;28;20187;-88
2021/12/23 11:58:41;;;;;;;38.70;20.77;;;1.20;99.90;;;;;;5035726;28;20241;-88
2021/12/23 12:01:19;;;;;;;35.50;21.70;;;1.20;99.90;;;;;;5017722;28;20198;-88
2021/12/23 12:03:54;;;;;;;32.33;21.15;;;1.20;99.90;;;;;;5018325;28;20273;-90
2021/12/23 12:06:23;;;;;;;31.63;20.73;;;1.30;99.90;;;;;;5017872;28;20194;-89
2021/12/23 12:09:07;;;;;;;31.27;22.50;;;1.30;99.90;;;;;;5018063;28;20206;-90
2021/12/23 12:11:33;;;;;;;36.97;21.02;;;1.30;99.90;;;;;;5018126;28;20198;-89
2021/12/23 12:13:59;;;;;;;31.40;20.23;;;1.30;99.90;;;;;;5018182;28;20721;-90
2021/12/23 12:16:30;;;;;;;34.43;21.33;;;1.40;99.90;;;;;;5017847;28;20244;-88
2021/12/23 12:18:57;;;;;;;38.60;23.65;;;1.40;99.90;;;;;;5035520;28;20183;-90
2021/12/23 12:21:32;;;;;;;39.83;23.15;;;1.40;99.90;;;;;;5014349;28;20294;-88
2021/12/23 12:24:18;;;;;;;35.55;21.25;;;1.40;99.90;;;;;;5044881;28;20201;-88
2021/12/23 12:26:51;;;;;;;33.20;21.48;;;1.50;99.90;;;;;;5030402;28;20679;-90
2021/12/23 12:29:24;;;;;;;38.15;22.85;;;1.50;99.90;;;;;;5023319;28;20214;-90
2021/12/23 12:31:50;;;;;;;47.17;28.17;;;1.50;99.90;;;;;;5034952;28;20735;-90
2021/12/23 12:34:19;;;;;;;42.23;26.03;;;1.50;99.90;;;;;;5048987;28;20277;-88
2021/12/23 12:36:50;;;;;;;41.45;25.38;;;1.50;99.90;;;;;;5048550;28;20210;-90
2021/12/23 12:39:30;;;;;;;39.63;26.00;;;1.50;99.90;;;;;;5016142;28;20277;-89
2021/12/23 12:42:05;;;;;;;39.13;25.08;;;1.40;99.90;;;;;;5049134;28;20182;-88
2021/12/23 12:44:45;;;;;;;38.95;22.90;;;1.40;99.90;;;;;;5049005;28;20193;-88
2021/12/23 12:47:23;;;;;;;37.25;22.70;;;1.50;99.90;;;;;;5049421;28;20171;-89
2021/12/23 12:49:52;;;;;;;35.28;23.73;;;1.50;99.90;;;;;;5049723;28;20240;-88
2021/12/23 12:52:23;;;;;;;41.17;24.00;;;1.50;99.90;;;;;;5050404;28;20237;-90
2021/12/23 12:55:23;;;;;;;41.05;28.10;;;1.50;99.90;;;;;;5038006;28;20201;-88
2021/12/23 12:57:50;;;;;;;47.25;28.00;;;1.50;99.90;;;;;;5021934;28;20206;-89
2021/12/23 13:00:21;;;;;;;38.33;25.88;;;1.50;99.90;;;;;;5062568;28;20194;-87
2021/12/23 13:02:58;;;;;;;38.47;27.90;;;1.50;99.90;;;;;;5049747;28;20174;-88
2021/12/23 13:05:42;;;;;;;55.60;34.78;;;1.50;99.90;;;;;;5017289;28;20667;-90
2021/12/23 13:08:24;;;;;;;45.33;30.05;;;1.50;99.90;;;;;;5050233;28;20192;-90
2021/12/23 13:10:50;;;;;;;41.00;27.20;;;1.50;99.90;;;;;;5049971;28;20206;-88
2021/12/23 13:13:31;;;;;;;47.75;30.80;;;1.50;99.90;;;;;;5034569;28;20221;-88
2021/12/23 13:16:00;;;;;;;47.13;27.98;;;1.50;99.90;;;;;;5017111;28;20202;-90
2021/12/23 13:18:26;;;;;;;44.85;31.35;;;1.60;99.90;;;;;;5049842;28;20186;-90
2021/12/23 13:21:05;;;;;;;48.30;32.22;;;1.60;99.90;;;;;;5033825;28;20227;-88
2021/12/23 13:23:36;;;;;;;50.10;30.50;;;1.60;99.90;;;;;;5050192;28;20182;-90
2021/12/23 13:26:12;;;;;;;51.33;31.77;;;1.50;99.90;;;;;;5049850;28;20195;-88
2021/12/23 13:28:45;;;;;;;52.75;32.53;;;1.50;99.90;;;;;;5056346;28;20218;-89
2021/12/23 13:31:19;;;;;;;49.05;33.28;;;1.50;99.90;;;;;;5056869;28;20266;-88
2021/12/23 13:34:03;;;;;;;53.13;33.08;;;1.50;99.90;;;;;;5026767;28;20226;-90
2021/12/23 13:36:48;;;;;;;55.28;31.55;;;1.50;99.90;;;;;;5061182;28;20198;-88
2021/12/23 13:39:20;;;;;;;50.85;32.45;;;1.50;99.90;;;;;;5032924;28;20535;-90
2021/12/23 13:41:54;;;;;;;53.40;35.53;;;1.50;99.90;;;;;;5047901;28;20577;-89
2021/12/23 13:44:42;;;;;;;54.30;36.72;;;1.50;99.90;;;;;;5047451;28;20549;-88
2021/12/23 13:47:17;;;;;;;58.22;38.13;;;1.50;99.90;;;;;;5049666;28;20225;-90
2021/12/23 13:49:50;;;;;;;68.07;39.40;;;1.50;99.90;;;;;;5049631;28;20186;-90
2021/12/23 13:52:25;;;;;;;67.15;39.38;;;1.50;99.90;;;;;;5032927;28;20204;-88